createdAt,value
2023-02-20T00:00:27.948Z,34.23
2023-02-20T00:01:26.989Z,34.23
2023-02-20T00:02:27.114Z,34.23
2023-02-20T00:03:27.120Z,34.23
2023-02-20T00:04:28.797Z,34.22
2023-02-20T00:05:28.169Z,34.21
2023-02-20T00:06:28.201Z,34.22
2023-02-20T00:07:27.245Z,34.20
2023-02-20T00:08:28.290Z,34.22
2023-02-20T00:09:28.384Z,34.23
2023-02-20T00:10:28.404Z,34.20
2023-02-20T00:11:27.424Z,34.24
2023-02-20T00:12:28.448Z,34.23
2023-02-20T00:13:28.480Z,34.23
2023-02-20T00:14:28.505Z,34.23
2023-02-20T00:15:28.517Z,34.22
2023-02-20T00:16:28.549Z,34.24
2023-02-20T00:17:28.593Z,34.23
2023-02-20T00:18:28.635Z,34.24
2023-02-20T00:19:28.634Z,34.21
2023-02-20T00:20:27.648Z,34.23
2023-02-20T00:21:27.672Z,34.23
2023-02-20T00:22:28.694Z,34.22
2023-02-20T00:23:27.751Z,34.23
2023-02-20T00:24:27.764Z,34.21
2023-02-20T00:25:27.796Z,34.22
2023-02-20T00:26:28.822Z,34.22
2023-02-20T00:27:28.881Z,34.22
2023-02-20T00:28:28.897Z,34.23
2023-02-20T00:29:27.952Z,34.21
2023-02-20T00:30:28.025Z,34.21
2023-02-20T00:31:28.156Z,34.23
2023-02-20T00:32:29.048Z,34.22
2023-02-20T00:33:29.094Z,34.22
2023-02-20T00:34:29.124Z,34.23
2023-02-20T00:35:29.142Z,34.20
2023-02-20T00:36:29.175Z,34.22
2023-02-20T00:37:28.240Z,34.23
2023-02-20T00:38:29.249Z,34.21
2023-02-20T00:39:28.334Z,34.22
2023-02-20T00:40:29.341Z,34.21
2023-02-20T00:41:29.363Z,34.22
2023-02-20T00:42:29.391Z,34.21
2023-02-20T00:43:28.415Z,34.22
2023-02-20T00:44:29.500Z,34.22
2023-02-20T00:45:29.491Z,34.23
2023-02-20T00:46:29.646Z,34.23
2023-02-20T00:47:29.574Z,34.24
2023-02-20T00:48:29.631Z,34.23
2023-02-20T00:49:28.676Z,34.21
2023-02-20T00:50:29.713Z,34.22
2023-02-20T00:51:29.741Z,34.23
2023-02-20T00:52:28.766Z,34.22
2023-02-20T00:53:29.805Z,34.23
2023-02-20T00:54:29.873Z,34.23
2023-02-20T00:55:28.915Z,34.25
2023-02-20T00:56:29.965Z,34.23
2023-02-20T00:57:28.995Z,34.22
2023-02-20T00:58:29.053Z,34.23
2023-02-20T00:59:30.072Z,34.21
2023-02-20T01:00:30.162Z,34.22
2023-02-20T01:01:29.186Z,34.24
2023-02-20T01:02:29.210Z,34.24
2023-02-20T01:03:30.194Z,34.25
2023-02-20T01:04:30.224Z,34.25
2023-02-20T01:05:30.278Z,34.21
2023-02-20T01:06:29.269Z,34.22
2023-02-20T01:07:29.288Z,34.24
2023-02-20T01:08:30.338Z,34.22
2023-02-20T01:09:30.338Z,34.23
2023-02-20T01:10:30.360Z,34.23
2023-02-20T01:11:30.389Z,34.25
2023-02-20T01:12:30.426Z,34.24
2023-02-20T01:13:30.460Z,34.24
2023-02-20T01:14:30.512Z,34.24
2023-02-20T01:15:30.546Z,34.23
2023-02-20T01:16:29.631Z,34.25
2023-02-20T01:17:30.624Z,34.23
2023-02-20T01:18:29.714Z,34.26
2023-02-20T01:19:30.747Z,34.24
2023-02-20T01:20:29.811Z,34.25
2023-02-20T01:21:29.867Z,34.25
2023-02-20T01:22:29.939Z,34.24
2023-02-20T01:23:30.982Z,34.24
2023-02-20T01:24:31.046Z,34.25
2023-02-20T01:25:30.095Z,34.23
2023-02-20T01:26:31.152Z,34.24
2023-02-20T01:27:31.217Z,34.24
2023-02-20T01:28:31.286Z,34.23
2023-02-20T01:29:30.362Z,34.22
2023-02-20T01:30:31.439Z,34.25
2023-02-20T01:31:31.582Z,34.24
2023-02-20T01:32:31.542Z,34.25
2023-02-20T01:33:31.590Z,34.26
2023-02-20T01:34:31.708Z,34.25
2023-02-20T01:35:31.713Z,34.26
2023-02-20T01:36:30.797Z,34.27
2023-02-20T01:37:30.846Z,34.26
2023-02-20T01:38:30.914Z,34.27
2023-02-20T01:39:32.009Z,34.26
2023-02-20T01:40:32.046Z,34.26
2023-02-20T01:41:32.115Z,34.26
2023-02-20T01:42:32.174Z,34.27
2023-02-20T01:43:32.246Z,34.26
2023-02-20T01:44:32.327Z,34.26
2023-02-20T01:45:31.374Z,34.25
2023-02-20T01:46:32.494Z,34.29
2023-02-20T01:47:32.497Z,34.28
2023-02-20T01:48:32.539Z,34.26
2023-02-20T01:49:32.628Z,34.27
2023-02-20T01:50:31.656Z,34.27
2023-02-20T01:51:31.719Z,34.26
2023-02-20T01:52:32.780Z,34.27
2023-02-20T01:53:32.832Z,34.27
2023-02-20T01:54:31.901Z,34.26
2023-02-20T01:55:32.964Z,34.27
2023-02-20T01:56:33.015Z,34.27
2023-02-20T01:57:32.075Z,34.26
2023-02-20T01:58:33.128Z,34.26
2023-02-20T01:59:32.221Z,34.28
2023-02-20T02:00:33.287Z,34.28
2023-02-20T02:01:33.428Z,34.28
2023-02-20T02:02:33.364Z,34.27
2023-02-20T02:03:32.412Z,34.28
2023-02-20T02:04:33.477Z,34.27
2023-02-20T02:05:32.529Z,34.30
2023-02-20T02:06:33.612Z,34.26
2023-02-20T02:07:33.704Z,34.28
2023-02-20T02:08:33.734Z,34.28
2023-02-20T02:09:33.922Z,34.27
2023-02-20T02:10:33.893Z,34.26
2023-02-20T02:11:32.896Z,34.27
2023-02-20T02:12:33.953Z,34.28
2023-02-20T02:13:34.011Z,34.28
2023-02-20T02:14:34.090Z,34.27
2023-02-20T02:15:33.154Z,34.28
2023-02-20T02:16:34.239Z,34.27
2023-02-20T02:17:34.257Z,34.27
2023-02-20T02:18:34.335Z,34.28
2023-02-20T02:19:34.398Z,34.28
2023-02-20T02:20:34.452Z,34.27
2023-02-20T02:21:34.524Z,34.27
2023-02-20T02:22:33.592Z,34.25
2023-02-20T02:23:34.669Z,34.29
2023-02-20T02:24:34.697Z,34.29
2023-02-20T02:25:33.769Z,34.29
2023-02-20T02:26:33.834Z,34.28
2023-02-20T02:27:34.915Z,34.27
2023-02-20T02:28:33.964Z,34.28
2023-02-20T02:29:34.034Z,34.30
2023-02-20T02:30:35.241Z,34.31
2023-02-20T02:31:35.292Z,34.27
2023-02-20T02:32:35.214Z,34.29
2023-02-20T02:33:35.291Z,34.29
2023-02-20T02:34:35.356Z,34.29
2023-02-20T02:35:34.417Z,34.30
2023-02-20T02:36:35.465Z,34.29
2023-02-20T02:37:35.494Z,34.30
2023-02-20T02:38:35.604Z,34.29
2023-02-20T02:39:34.621Z,34.28
2023-02-20T02:40:35.670Z,34.29
2023-02-20T02:41:34.737Z,34.28
2023-02-20T02:42:35.795Z,34.29
2023-02-20T02:43:35.850Z,34.29
2023-02-20T02:44:35.908Z,34.29
2023-02-20T02:45:35.004Z,34.29
2023-02-20T02:46:36.059Z,34.28
2023-02-20T02:47:35.107Z,34.28
2023-02-20T02:48:36.156Z,34.32
2023-02-20T02:49:35.191Z,34.27
2023-02-20T02:50:36.330Z,34.31
2023-02-20T02:51:36.283Z,34.31
2023-02-20T02:52:36.319Z,34.31
2023-02-20T02:53:36.362Z,34.29
2023-02-20T02:54:35.399Z,34.30
2023-02-20T02:55:35.407Z,34.31
2023-02-20T02:56:36.487Z,34.30
2023-02-20T02:57:35.489Z,34.31
2023-02-20T02:58:35.508Z,34.30
2023-02-20T02:59:36.564Z,34.30
2023-02-20T03:00:36.616Z,34.31
2023-02-20T03:01:36.667Z,34.31
2023-02-20T03:02:36.780Z,34.31
2023-02-20T03:03:35.752Z,34.33
2023-02-20T03:04:35.796Z,34.32
2023-02-20T03:05:35.848Z,34.32
2023-02-20T03:06:36.886Z,34.32
2023-02-20T03:07:36.898Z,34.33
2023-02-20T03:08:35.917Z,34.32
2023-02-20T03:09:36.957Z,34.34
2023-02-20T03:10:36.980Z,34.33
2023-02-20T03:11:36.976Z,34.33
2023-02-20T03:12:35.991Z,34.32
2023-02-20T03:13:37.024Z,34.34
2023-02-20T03:14:37.058Z,34.34
2023-02-20T03:15:37.115Z,34.33
2023-02-20T03:16:36.166Z,34.33
2023-02-20T03:17:37.112Z,34.35
2023-02-20T03:18:36.142Z,34.33
2023-02-20T03:19:37.160Z,34.33
2023-02-20T03:20:37.151Z,34.35
2023-02-20T03:21:37.180Z,34.35
2023-02-20T03:22:36.174Z,34.33
2023-02-20T03:23:36.176Z,34.37
2023-02-20T03:24:37.169Z,34.34
2023-02-20T03:25:36.197Z,34.36
2023-02-20T03:26:37.258Z,34.34
2023-02-20T03:27:37.268Z,34.35
2023-02-20T03:28:36.269Z,34.33
2023-02-20T03:29:37.296Z,34.36
2023-02-20T03:30:37.360Z,34.35
2023-02-20T03:31:37.503Z,34.35
2023-02-20T03:32:36.381Z,34.35
2023-02-20T03:33:37.413Z,34.33
2023-02-20T03:34:37.441Z,34.33
2023-02-20T03:35:36.458Z,34.37
2023-02-20T03:36:37.494Z,34.36
2023-02-20T03:37:36.617Z,34.34
2023-02-20T03:38:37.515Z,34.35
2023-02-20T03:39:36.535Z,34.38
2023-02-20T03:40:36.564Z,34.36
2023-02-20T03:41:37.593Z,34.36
2023-02-20T03:42:37.652Z,34.38
2023-02-20T03:43:36.909Z,34.36
2023-02-20T03:44:36.658Z,34.34
2023-02-20T03:45:37.724Z,34.36
2023-02-20T03:46:36.674Z,34.36
2023-02-20T03:47:37.675Z,34.34
2023-02-20T03:48:37.697Z,34.35
2023-02-20T03:49:37.739Z,34.35
2023-02-20T03:50:37.783Z,34.34
2023-02-20T03:51:36.808Z,34.37
2023-02-20T03:52:37.876Z,34.36
2023-02-20T03:53:38.486Z,34.37
2023-02-20T03:54:38.162Z,34.36
2023-02-20T03:55:38.277Z,34.37
2023-02-20T03:56:38.303Z,34.36
2023-02-20T03:57:36.887Z,34.37
2023-02-20T03:58:37.276Z,34.36
2023-02-20T03:59:36.877Z,34.36
2023-02-20T04:00:38.249Z,34.38
2023-02-20T04:01:37.947Z,34.38
2023-02-20T04:02:37.882Z,34.35
2023-02-20T04:03:38.003Z,34.37
2023-02-20T04:04:38.187Z,34.37
2023-02-20T04:05:36.889Z,34.36
2023-02-20T04:06:36.897Z,34.38
2023-02-20T04:07:37.933Z,34.37
2023-02-20T04:08:36.939Z,34.38
2023-02-20T04:09:37.968Z,34.37
2023-02-20T04:10:37.990Z,34.38
2023-02-20T04:11:38.017Z,34.35
2023-02-20T04:12:38.036Z,34.39
2023-02-20T04:13:38.078Z,34.38
2023-02-20T04:14:38.145Z,34.39
2023-02-20T04:15:38.188Z,34.36
2023-02-20T04:16:38.234Z,34.37
2023-02-20T04:17:38.209Z,34.40
2023-02-20T04:18:37.266Z,34.39
2023-02-20T04:19:37.296Z,34.38
2023-02-20T04:20:38.379Z,34.36
2023-02-20T04:21:38.392Z,34.38
2023-02-20T04:22:38.417Z,34.38
2023-02-20T04:23:38.450Z,34.39
2023-02-20T04:24:38.461Z,34.37
2023-02-20T04:25:38.480Z,34.39
2023-02-20T04:26:38.476Z,34.39
2023-02-20T04:27:38.525Z,34.38
2023-02-20T04:28:38.494Z,34.39
2023-02-20T04:29:37.540Z,34.38
2023-02-20T04:30:38.794Z,34.38
2023-02-20T04:31:38.641Z,34.38
2023-02-20T04:32:38.624Z,34.40
2023-02-20T04:33:38.639Z,34.39
2023-02-20T04:34:38.618Z,34.40
2023-02-20T04:35:37.631Z,34.38
2023-02-20T04:36:38.645Z,34.40
2023-02-20T04:37:37.641Z,34.37
2023-02-20T04:38:38.676Z,34.39
2023-02-20T04:39:38.644Z,34.39
2023-02-20T04:40:37.639Z,34.38
2023-02-20T04:41:37.628Z,34.39
2023-02-20T04:42:38.654Z,34.39
2023-02-20T04:43:38.673Z,34.38
2023-02-20T04:44:37.669Z,34.39
2023-02-20T04:45:38.683Z,34.39
2023-02-20T04:46:38.733Z,34.40
2023-02-20T04:47:38.698Z,34.39
2023-02-20T04:48:38.683Z,34.41
2023-02-20T04:49:38.693Z,34.40
2023-02-20T04:50:37.699Z,34.38
2023-02-20T04:51:38.719Z,34.38
2023-02-20T04:52:38.728Z,34.38
2023-02-20T04:53:38.724Z,34.40
2023-02-20T04:54:38.719Z,34.39
2023-02-20T04:55:38.725Z,34.39
2023-02-20T04:56:37.708Z,34.39
2023-02-20T04:57:38.735Z,34.39
2023-02-20T04:58:37.760Z,34.37
2023-02-20T04:59:38.764Z,34.40
2023-02-20T05:00:38.782Z,34.39
2023-02-20T05:01:37.832Z,34.39
2023-02-20T05:02:38.838Z,34.41
2023-02-20T05:03:38.815Z,34.38
2023-02-20T05:04:38.878Z,34.39
2023-02-20T05:05:38.830Z,34.41
2023-02-20T05:06:38.856Z,34.39
2023-02-20T05:07:37.868Z,34.40
2023-02-20T05:08:38.863Z,34.40
2023-02-20T05:09:38.869Z,34.41
2023-02-20T05:10:38.855Z,34.41
2023-02-20T05:11:38.879Z,34.38
2023-02-20T05:12:37.861Z,34.41
2023-02-20T05:13:38.859Z,34.41
2023-02-20T05:14:37.852Z,34.40
2023-02-20T05:15:38.856Z,34.41
2023-02-20T05:16:37.827Z,34.41
2023-02-20T05:17:38.815Z,34.40
2023-02-20T05:18:38.891Z,34.39
2023-02-20T05:19:37.809Z,34.38
2023-02-20T05:20:38.818Z,34.42
2023-02-20T05:21:38.811Z,34.42
2023-02-20T05:22:38.813Z,34.41
2023-02-20T05:23:38.805Z,34.42
2023-02-20T05:24:38.807Z,34.40
2023-02-20T05:25:38.802Z,34.41
2023-02-20T05:26:38.791Z,34.42
2023-02-20T05:27:38.785Z,34.43
2023-02-20T05:28:38.794Z,34.41
2023-02-20T05:29:37.795Z,34.44
2023-02-20T05:30:38.869Z,34.42
2023-02-20T05:31:37.858Z,34.44
2023-02-20T05:32:38.780Z,34.41
2023-02-20T05:33:38.818Z,34.43
2023-02-20T05:34:38.874Z,34.44
2023-02-20T05:35:39.044Z,34.42
2023-02-20T05:36:38.150Z,34.42
2023-02-20T05:37:37.851Z,34.43
2023-02-20T05:38:38.868Z,34.45
2023-02-20T05:39:38.848Z,34.43
2023-02-20T05:40:39.053Z,34.46
2023-02-20T05:41:39.182Z,34.42
2023-02-20T05:42:38.021Z,34.46
2023-02-20T05:43:38.885Z,34.43
2023-02-20T05:44:38.837Z,34.42
2023-02-20T05:45:38.849Z,34.46
2023-02-20T05:46:37.864Z,34.43
2023-02-20T05:47:38.899Z,34.44
2023-02-20T05:48:38.850Z,34.44
2023-02-20T05:49:37.818Z,34.45
2023-02-20T05:50:38.845Z,34.43
2023-02-20T05:51:38.808Z,34.42
2023-02-20T05:52:38.804Z,34.45
2023-02-20T05:53:38.812Z,34.46
2023-02-20T05:54:37.792Z,34.45
2023-02-20T05:55:38.788Z,34.45
2023-02-20T05:56:38.777Z,34.47
2023-02-20T05:57:37.775Z,34.47
2023-02-20T05:58:38.769Z,34.45
2023-02-20T05:59:38.874Z,34.45
2023-02-20T06:00:38.864Z,34.45
2023-02-20T06:01:39.169Z,34.44
2023-02-20T06:02:37.762Z,34.45
2023-02-20T06:03:38.833Z,34.46
2023-02-20T06:04:38.831Z,34.46
2023-02-20T06:05:38.783Z,34.44
2023-02-20T06:06:38.801Z,34.45
2023-02-20T06:07:37.766Z,34.44
2023-02-20T06:08:37.776Z,34.44
2023-02-20T06:09:38.790Z,34.44
2023-02-20T06:10:37.779Z,34.47
2023-02-20T06:11:37.788Z,34.46
2023-02-20T06:12:38.781Z,34.43
2023-02-20T06:13:38.776Z,34.44
2023-02-20T06:14:37.803Z,34.44
2023-02-20T06:15:38.790Z,34.46
2023-02-20T06:16:38.799Z,34.44
2023-02-20T06:17:37.789Z,34.46
2023-02-20T06:18:37.781Z,34.47
2023-02-20T06:19:38.787Z,34.43
2023-02-20T06:20:38.774Z,34.42
2023-02-20T06:21:38.788Z,34.45
2023-02-20T06:22:38.814Z,34.46
2023-02-20T06:23:38.816Z,34.46
2023-02-20T06:24:38.835Z,34.45
2023-02-20T06:25:38.810Z,34.45
2023-02-20T06:26:38.828Z,34.44
2023-02-20T06:27:38.790Z,34.45
2023-02-20T06:28:38.803Z,34.47
2023-02-20T06:29:38.801Z,34.45
2023-02-20T06:30:38.839Z,34.50
2023-02-20T06:31:38.962Z,34.49
2023-02-20T06:32:38.899Z,34.50
2023-02-20T06:33:38.915Z,34.47
2023-02-20T06:34:38.960Z,34.47
2023-02-20T06:35:38.902Z,34.48
2023-02-20T06:36:38.932Z,34.45
2023-02-20T06:37:37.902Z,34.48
2023-02-20T06:38:37.933Z,34.46
2023-02-20T06:39:38.931Z,34.46
2023-02-20T06:40:38.956Z,34.43
2023-02-20T06:41:37.980Z,34.44
2023-02-20T06:42:39.033Z,34.42
2023-02-20T06:43:39.081Z,34.43
2023-02-20T06:44:38.138Z,34.45
2023-02-20T06:45:38.128Z,34.44
2023-02-20T06:46:39.367Z,34.47
2023-02-20T06:47:39.210Z,34.56
2023-02-20T06:48:38.277Z,34.54
2023-02-20T06:49:38.345Z,34.60
2023-02-20T06:50:38.373Z,34.58
2023-02-20T06:51:39.435Z,34.62
2023-02-20T06:52:39.503Z,34.72
2023-02-20T06:53:39.549Z,34.61
2023-02-20T06:54:39.623Z,34.60
2023-02-20T06:55:39.650Z,34.59
2023-02-20T06:56:39.695Z,34.75
2023-02-20T06:57:38.764Z,34.80
2023-02-20T06:58:39.820Z,34.84
2023-02-20T06:59:39.915Z,35.32
2023-02-20T07:00:39.955Z,35.02
2023-02-20T07:01:39.982Z,35.26
2023-02-20T07:02:40.015Z,35.35
2023-02-20T07:03:39.029Z,35.50
2023-02-20T07:04:40.063Z,35.35
2023-02-20T07:05:39.095Z,35.39
2023-02-20T07:06:40.152Z,35.58
2023-02-20T07:07:39.125Z,35.44
2023-02-20T07:08:40.149Z,35.35
2023-02-20T07:09:40.167Z,35.39
2023-02-20T07:10:40.209Z,35.35
2023-02-20T07:11:40.193Z,35.58
2023-02-20T07:12:40.224Z,35.44
2023-02-20T07:13:40.289Z,35.55
2023-02-20T07:14:39.293Z,35.46
2023-02-20T07:15:39.410Z,35.53
2023-02-20T07:16:40.306Z,35.58
2023-02-20T07:17:40.302Z,35.64
2023-02-20T07:18:40.328Z,35.64
2023-02-20T07:19:39.351Z,35.60
2023-02-20T07:20:40.336Z,35.61
2023-02-20T07:21:40.374Z,35.74
2023-02-20T07:22:40.367Z,35.70
2023-02-20T07:23:40.368Z,35.73
2023-02-20T07:24:39.383Z,35.70
2023-02-20T07:25:40.367Z,35.71
2023-02-20T07:26:40.394Z,35.77
2023-02-20T07:27:40.376Z,35.81
2023-02-20T07:28:40.377Z,35.90
2023-02-20T07:29:40.387Z,35.84
2023-02-20T07:30:40.426Z,36.30
2023-02-20T07:31:40.500Z,36.53
2023-02-20T07:32:40.401Z,36.25
2023-02-20T07:33:40.406Z,36.18
2023-02-20T07:34:42.082Z,36.11
2023-02-20T07:35:40.407Z,36.20
2023-02-20T07:36:40.389Z,36.27
2023-02-20T07:37:39.401Z,36.34
2023-02-20T07:38:40.358Z,36.81
2023-02-20T07:39:40.376Z,36.53
2023-02-20T07:40:40.554Z,36.53
2023-02-20T07:41:40.356Z,36.64
2023-02-20T07:42:39.390Z,36.98
2023-02-20T07:43:40.372Z,36.79
2023-02-20T07:44:40.390Z,36.74
2023-02-20T07:45:40.489Z,37.01
2023-02-20T07:46:40.404Z,37.05
2023-02-20T07:47:39.407Z,37.07
2023-02-20T07:48:39.410Z,37.11
2023-02-20T07:49:40.400Z,37.30
2023-02-20T07:50:40.405Z,37.20
2023-02-20T07:51:39.392Z,37.46
2023-02-20T07:52:40.397Z,37.48
2023-02-20T07:53:40.385Z,37.25
2023-02-20T07:54:40.470Z,37.29
2023-02-20T07:55:39.444Z,38.21
2023-02-20T07:56:40.449Z,37.86
2023-02-20T07:57:39.500Z,37.73
2023-02-20T07:58:40.561Z,37.67
2023-02-20T07:59:40.584Z,37.74
2023-02-20T08:00:40.628Z,37.62
2023-02-20T08:01:40.812Z,37.95
2023-02-20T08:02:40.751Z,38.00
2023-02-20T08:03:41.458Z,37.61
2023-02-20T08:04:40.875Z,38.66
2023-02-20T08:05:48.959Z,38.51
2023-02-20T08:06:40.947Z,38.49
2023-02-20T08:07:40.928Z,38.73
2023-02-20T08:08:39.899Z,38.44
2023-02-20T08:09:40.899Z,38.63
2023-02-20T08:10:40.883Z,39.10
2023-02-20T08:11:40.905Z,39.18
2023-02-20T08:12:40.872Z,38.93
2023-02-20T08:13:40.872Z,38.92
2023-02-20T08:14:40.880Z,38.82
2023-02-20T08:15:39.865Z,38.66
2023-02-20T08:16:40.868Z,38.75
2023-02-20T08:17:47.030Z,38.88
2023-02-20T08:18:40.821Z,38.76
2023-02-20T08:19:40.816Z,38.84
2023-02-20T08:20:40.825Z,38.64
2023-02-20T08:21:39.792Z,39.45
2023-02-20T08:22:41.824Z,39.01
2023-02-20T08:23:40.780Z,38.96
2023-02-20T08:24:40.802Z,39.14
2023-02-20T08:25:40.844Z,39.27
2023-02-20T08:26:40.894Z,39.35
2023-02-20T08:27:39.937Z,39.07
2023-02-20T08:28:39.996Z,39.75
2023-02-20T08:29:41.053Z,40.02
2023-02-20T08:30:41.313Z,39.69
2023-02-20T08:31:41.226Z,39.84
2023-02-20T08:32:41.245Z,39.93
2023-02-20T08:33:41.197Z,39.91
2023-02-20T08:34:41.266Z,39.81
2023-02-20T08:35:42.775Z,39.67
2023-02-20T08:36:40.446Z,39.76
2023-02-20T08:37:40.479Z,39.95
2023-02-20T08:38:41.526Z,39.66
2023-02-20T08:39:41.565Z,39.66
2023-02-20T08:40:40.576Z,39.90
2023-02-20T08:41:41.655Z,39.54
2023-02-20T08:42:40.682Z,39.67
2023-02-20T08:43:41.701Z,40.19
2023-02-20T08:44:41.758Z,39.89
2023-02-20T08:45:41.795Z,40.29
2023-02-20T08:46:41.802Z,40.63
2023-02-20T08:47:40.789Z,40.92
2023-02-20T08:48:41.818Z,41.09
2023-02-20T08:49:41.985Z,40.68
2023-02-20T08:50:41.881Z,40.52
2023-02-20T08:51:41.903Z,40.85
2023-02-20T08:52:41.927Z,40.62
2023-02-20T08:53:41.968Z,40.39
2023-02-20T08:54:41.980Z,40.55
2023-02-20T08:55:40.994Z,40.44
2023-02-20T08:56:42.021Z,41.13
2023-02-20T08:57:42.023Z,41.12
2023-02-20T08:58:42.040Z,40.70
2023-02-20T08:59:42.051Z,40.59
2023-02-20T09:00:42.160Z,40.51
2023-02-20T09:01:42.089Z,40.50
2023-02-20T09:02:42.139Z,40.50
2023-02-20T09:03:42.083Z,40.53
2023-02-20T09:04:41.120Z,40.61
2023-02-20T09:05:42.131Z,40.62
2023-02-20T09:06:42.123Z,40.72
2023-02-20T09:07:41.152Z,40.72
2023-02-20T09:08:42.145Z,40.68
2023-02-20T09:09:41.204Z,40.74
2023-02-20T09:10:42.181Z,40.66
2023-02-20T09:11:42.183Z,40.68
2023-02-20T09:12:42.388Z,40.77
2023-02-20T09:13:42.225Z,40.88
2023-02-20T09:14:41.269Z,40.83
2023-02-20T09:15:42.277Z,40.78
2023-02-20T09:16:42.373Z,40.97
2023-02-20T09:17:42.269Z,40.81
2023-02-20T09:18:42.314Z,40.88
2023-02-20T09:19:42.344Z,41.26
2023-02-20T09:20:42.301Z,41.20
2023-02-20T09:21:41.316Z,41.26
2023-02-20T09:22:42.296Z,41.39
2023-02-20T09:23:41.290Z,41.43
2023-02-20T09:24:42.309Z,41.28
2023-02-20T09:25:41.310Z,41.28
2023-02-20T09:26:42.327Z,41.24
2023-02-20T09:27:42.318Z,41.39
2023-02-20T09:28:41.332Z,41.37
2023-02-20T09:29:42.350Z,41.78
2023-02-20T09:30:41.405Z,41.99
2023-02-20T09:31:42.518Z,41.77
2023-02-20T09:32:41.370Z,41.83
2023-02-20T09:33:42.338Z,41.98
2023-02-20T09:34:42.352Z,42.05
2023-02-20T09:35:42.329Z,42.07
2023-02-20T09:36:42.353Z,42.28
2023-02-20T09:37:42.366Z,42.56
2023-02-20T09:38:41.388Z,42.59
2023-02-20T09:39:42.457Z,42.61
2023-02-20T09:40:42.453Z,43.45
2023-02-20T09:41:41.495Z,43.40
2023-02-20T09:42:44.198Z,42.67
2023-02-20T09:43:41.512Z,42.79
2023-02-20T09:44:43.021Z,42.79
2023-02-20T09:45:41.538Z,43.52
2023-02-20T09:46:42.479Z,44.07
2023-02-20T09:47:42.466Z,44.12
2023-02-20T09:48:42.574Z,43.33
2023-02-20T09:49:42.509Z,43.35
2023-02-20T09:50:42.476Z,43.13
2023-02-20T09:51:42.464Z,42.87
2023-02-20T09:52:42.463Z,42.95
2023-02-20T09:53:42.442Z,42.88
2023-02-20T09:54:44.497Z,43.13
2023-02-20T09:55:42.432Z,42.61
2023-02-20T09:56:42.424Z,42.05
2023-02-20T09:57:42.401Z,41.84
2023-02-20T09:58:42.424Z,42.09
2023-02-20T09:59:42.395Z,41.76
2023-02-20T10:00:41.397Z,41.44
2023-02-20T10:01:42.380Z,41.95
2023-02-20T10:02:42.614Z,41.66
2023-02-20T10:03:42.350Z,41.17
2023-02-20T10:04:52.233Z,40.99
2023-02-20T10:05:42.352Z,41.04
2023-02-20T10:06:41.355Z,40.61
2023-02-20T10:07:42.328Z,40.41
2023-02-20T10:08:42.322Z,40.33
2023-02-20T10:09:41.298Z,40.25
2023-02-20T10:10:41.321Z,40.31
2023-02-20T10:11:42.307Z,39.20
2023-02-20T10:12:41.286Z,39.66
2023-02-20T10:13:41.273Z,39.78
2023-02-20T10:14:42.283Z,39.75
2023-02-20T10:15:42.256Z,39.73
2023-02-20T10:16:41.322Z,39.61
2023-02-20T10:17:42.245Z,39.54
2023-02-20T10:18:42.232Z,39.51
2023-02-20T10:19:42.232Z,39.32
2023-02-20T10:20:42.233Z,39.13
2023-02-20T10:21:42.239Z,39.09
2023-02-20T10:22:42.257Z,38.72
2023-02-20T10:23:42.204Z,38.76
2023-02-20T10:24:42.199Z,38.38
2023-02-20T10:25:42.181Z,38.14
2023-02-20T10:26:41.167Z,38.41
2023-02-20T10:27:42.170Z,38.53
2023-02-20T10:28:41.290Z,38.49
2023-02-20T10:29:42.318Z,38.21
2023-02-20T10:30:42.518Z,38.08
2023-02-20T10:31:41.507Z,37.98
2023-02-20T10:32:42.468Z,37.96
2023-02-20T10:33:42.497Z,37.78
2023-02-20T10:34:42.522Z,37.72
2023-02-20T10:35:42.555Z,37.61
2023-02-20T10:36:42.575Z,37.45
2023-02-20T10:37:47.740Z,37.11
2023-02-20T10:38:42.628Z,36.77
2023-02-20T10:39:41.577Z,36.62
2023-02-20T10:40:41.591Z,36.60
2023-02-20T10:41:42.632Z,36.55
2023-02-20T10:42:42.571Z,36.53
2023-02-20T10:43:42.551Z,35.95
2023-02-20T10:44:51.570Z,35.78
2023-02-20T10:45:42.646Z,35.66
2023-02-20T10:46:48.864Z,35.67
2023-02-20T10:47:42.531Z,35.22
2023-02-20T10:48:42.550Z,35.65
2023-02-20T10:49:42.024Z,35.64
2023-02-20T10:50:42.530Z,35.40
2023-02-20T10:51:42.498Z,35.18
2023-02-20T10:52:42.503Z,35.24
2023-02-20T10:53:42.510Z,35.33
2023-02-20T10:54:42.529Z,35.65
2023-02-20T10:55:42.480Z,35.33
2023-02-20T10:56:41.476Z,35.78
2023-02-20T10:57:41.451Z,35.43
2023-02-20T10:58:42.455Z,35.38
2023-02-20T10:59:42.461Z,35.48
2023-02-20T11:00:42.434Z,35.49
2023-02-20T11:01:42.507Z,35.74
2023-02-20T11:02:41.403Z,35.81
2023-02-20T11:03:42.442Z,35.51
2023-02-20T11:04:41.453Z,35.87
2023-02-20T11:05:42.425Z,35.63
2023-02-20T11:06:42.391Z,35.85
2023-02-20T11:07:42.366Z,35.79
2023-02-20T11:08:42.407Z,35.50
2023-02-20T11:09:42.368Z,35.60
2023-02-20T11:10:41.399Z,35.50
2023-02-20T11:11:41.343Z,35.58
2023-02-20T11:12:41.334Z,35.48
2023-02-20T11:13:42.345Z,35.69
2023-02-20T11:14:42.118Z,35.46
2023-02-20T11:15:42.328Z,35.21
2023-02-20T11:16:41.324Z,35.37
2023-02-20T11:17:41.301Z,35.29
2023-02-20T11:18:42.295Z,35.29
2023-02-20T11:19:42.332Z,35.41
2023-02-20T11:20:42.323Z,35.28
2023-02-20T11:21:41.272Z,35.39
2023-02-20T11:22:42.270Z,35.48
2023-02-20T11:23:41.250Z,35.38
2023-02-20T11:24:41.253Z,35.43
2023-02-20T11:25:42.270Z,35.42
2023-02-20T11:26:42.258Z,35.34
2023-02-20T11:27:41.241Z,35.27
2023-02-20T11:28:42.242Z,35.39
2023-02-20T11:29:42.223Z,35.28
2023-02-20T11:30:42.286Z,35.26
2023-02-20T11:31:42.345Z,35.22
2023-02-20T11:32:42.182Z,35.28
2023-02-20T11:33:42.204Z,35.29
2023-02-20T11:34:42.200Z,35.38
2023-02-20T11:35:41.204Z,35.33
2023-02-20T11:36:42.169Z,35.30
2023-02-20T11:37:54.059Z,35.33
2023-02-20T11:38:42.160Z,35.34
2023-02-20T11:39:41.154Z,35.42
2023-02-20T11:40:42.142Z,35.34
2023-02-20T11:41:42.156Z,35.37
2023-02-20T11:42:42.210Z,35.45
2023-02-20T11:43:49.742Z,35.53
2023-02-20T11:44:42.105Z,35.51
2023-02-20T11:45:42.544Z,35.35
2023-02-20T11:46:42.176Z,35.31
2023-02-20T11:47:42.089Z,35.35
2023-02-20T11:48:42.092Z,35.36
2023-02-20T11:49:42.075Z,35.35
2023-02-20T11:50:41.079Z,35.31
2023-02-20T11:51:42.049Z,35.35
2023-02-20T11:52:41.044Z,35.36
2023-02-20T11:53:42.036Z,35.35
2023-02-20T11:54:42.020Z,35.35
2023-02-20T11:55:42.577Z,35.34
2023-02-20T11:56:42.021Z,35.29
2023-02-20T11:57:42.037Z,35.34
2023-02-20T11:58:42.041Z,35.27
2023-02-20T11:59:41.982Z,35.23
2023-02-20T12:00:41.983Z,35.24
2023-02-20T12:01:45.090Z,35.22
2023-02-20T12:02:42.000Z,35.24
2023-02-20T12:03:42.066Z,35.23
2023-02-20T12:04:40.962Z,35.22
2023-02-20T12:05:42.056Z,35.22
2023-02-20T12:06:41.965Z,35.22
2023-02-20T12:07:41.954Z,35.16
2023-02-20T12:08:41.914Z,35.18
2023-02-20T12:09:41.940Z,35.15
2023-02-20T12:10:41.968Z,35.14
2023-02-20T12:11:41.900Z,35.15
2023-02-20T12:12:41.892Z,35.13
2023-02-20T12:13:40.898Z,35.12
2023-02-20T12:14:41.923Z,35.13
2023-02-20T12:15:40.868Z,35.13
2023-02-20T12:16:40.847Z,35.16
2023-02-20T12:17:41.862Z,35.14
2023-02-20T12:18:41.835Z,35.12
2023-02-20T12:19:41.848Z,35.14
2023-02-20T12:20:41.840Z,35.12
2023-02-20T12:21:41.860Z,35.14
2023-02-20T12:22:41.816Z,35.10
2023-02-20T12:23:40.818Z,35.08
2023-02-20T12:24:41.804Z,35.13
2023-02-20T12:25:40.830Z,35.07
2023-02-20T12:26:41.779Z,35.07
2023-02-20T12:27:40.809Z,35.12
2023-02-20T12:28:41.771Z,35.08
2023-02-20T12:29:41.765Z,35.08
2023-02-20T12:30:41.832Z,35.06
2023-02-20T12:31:41.874Z,35.10
2023-02-20T12:32:41.757Z,35.08
2023-02-20T12:33:41.742Z,35.09
2023-02-20T12:34:41.749Z,35.09
2023-02-20T12:35:42.353Z,35.08
2023-02-20T12:36:42.059Z,35.11
2023-02-20T12:37:41.864Z,35.15
2023-02-20T12:38:40.940Z,35.14
2023-02-20T12:39:41.976Z,35.16
2023-02-20T12:40:42.036Z,35.17
2023-02-20T12:41:42.073Z,35.16
2023-02-20T12:42:42.118Z,35.18
2023-02-20T12:43:41.138Z,35.20
2023-02-20T12:44:41.160Z,35.21
2023-02-20T12:45:42.570Z,35.21
2023-02-20T12:46:41.356Z,35.25
2023-02-20T12:47:41.344Z,35.23
2023-02-20T12:48:42.368Z,35.27
2023-02-20T12:49:41.433Z,35.26
2023-02-20T12:50:41.474Z,35.27
2023-02-20T12:51:42.507Z,35.29
2023-02-20T12:52:42.560Z,35.29